Time;durP1;ratioP1;P1;durP2;ratioP2;P2;SDS_P1;SDS_P2;PMS_P1;PMS_P2;Temp;Humidity;BMP_temperature;BMP_pressure;BME280_temperature;BME280_humidity;BME280_pressure;Samples;Min_cycle;Max_cycle;Signal;HPM_P1;HPM_P2
2021/12/21 00:02:03;;;;;;;14.53;5.80;;;;;;;-0.90;100.00;101066.31;10538754;28;20246;-67
2021/12/21 00:07:06;;;;;;;15.40;5.73;;;;;;;-0.85;100.00;101062.31;10538991;28;20213;-67
2021/12/21 00:12:13;;;;;;;14.57;5.30;;;;;;;-0.76;100.00;101060.16;10540743;28;20285;-68
2021/12/21 00:17:32;;;;;;;11.97;5.43;;;;;;;-0.78;100.00;101061.78;10547403;28;20213;-68
2021/12/21 00:28:05;;;;;;;12.30;4.60;;;;;;;-0.71;100.00;101056.16;10522628;28;20239;-65
2021/12/21 00:33:10;;;;;;;12.77;5.63;;;;;;;-0.61;100.00;101062.53;10549747;28;20314;-66
2021/12/21 00:38:15;;;;;;;13.93;4.83;;;;;;;-0.58;100.00;101067.78;10549510;28;20230;-67
2021/12/21 00:43:18;;;;;;;13.77;5.73;;;;;;;-0.62;100.00;101071.84;10549056;28;20223;-68
2021/12/21 00:48:27;;;;;;;13.70;5.63;;;;;;;-0.61;100.00;101085.47;10549564;28;20284;-65
2021/12/21 00:53:31;;;;;;;17.57;6.47;;;;;;;-0.58;100.00;101085.63;10549474;28;20563;-67
2021/12/21 00:58:34;;;;;;;16.57;6.93;;;;;;;-0.63;100.00;101097.28;10549062;28;20238;-66
2021/12/21 01:03:43;;;;;;;15.97;6.00;;;;;;;-0.55;100.00;101095.97;10548485;28;20235;-66
2021/12/21 01:09:01;;;;;;;11.73;5.67;;;;;;;-0.51;100.00;101098.72;10548610;28;20289;-65
2021/12/21 01:14:26;;;;;;;14.43;6.00;;;;;;;-0.67;100.00;101093.72;10548687;28;20301;-63
2021/12/21 01:19:35;;;;;;;13.70;6.07;;;;;;;-0.64;100.00;101100.63;10548145;28;20226;-65
2021/12/21 01:25:09;;;;;;;18.00;5.97;;;;;;;-0.72;100.00;101086.66;10547389;28;20224;-65
2021/12/21 01:30:22;;;;;;;16.13;5.97;;;;;;;-0.72;100.00;101099.38;10547770;28;20215;-70
2021/12/21 01:35:32;;;;;;;14.13;5.50;;;;;;;-0.73;100.00;101096.00;10547676;28;20260;-67
2021/12/21 01:40:42;;;;;;;13.17;5.00;;;;;;;-0.77;100.00;101103.41;10547432;28;20249;-68
2021/12/21 01:51:09;;;;;;;11.80;4.73;;;;;;;-0.72;100.00;101096.84;10547228;28;20214;-65
2021/12/21 01:56:13;;;;;;;10.10;4.47;;;;;;;-0.86;100.00;101101.28;10546720;28;20215;-66
2021/12/21 02:01:19;;;;;;;13.80;4.73;;;;;;;-0.73;100.00;101103.63;10546523;28;20246;-65
2021/12/21 02:06:27;;;;;;;10.53;3.80;;;;;;;-0.72;100.00;101096.84;10546138;28;20230;-70
2021/12/21 02:11:30;;;;;;;11.33;3.97;;;;;;;-0.76;100.00;101103.47;10546106;28;20223;-69
2021/12/21 02:16:41;;;;;;;8.17;3.47;;;;;;;-0.87;100.00;101099.56;10545846;28;20224;-68
2021/12/21 02:21:49;;;;;;;9.97;3.67;;;;;;;-0.91;100.00;101106.97;10545853;28;20290;-65
2021/12/21 02:27:05;;;;;;;9.63;3.80;;;;;;;-1.09;100.00;101106.13;10545253;28;20238;-68
2021/12/21 02:32:12;;;;;;;11.87;3.87;;;;;;;-1.08;100.00;101112.94;10545322;28;20218;-66
2021/12/21 02:37:17;;;;;;;8.20;3.20;;;;;;;-1.21;100.00;101108.94;10544805;28;20235;-70
2021/12/21 02:42:20;;;;;;;8.63;3.33;;;;;;;-1.35;100.00;101122.69;10545149;28;20268;-68
2021/12/21 02:47:23;;;;;;;9.90;3.10;;;;;;;-1.31;100.00;101124.56;10544515;28;20238;-68
2021/12/21 02:52:28;;;;;;;9.10;3.77;;;;;;;-1.29;100.00;101116.22;10544517;28;20249;-71
2021/12/21 02:57:32;;;;;;;10.20;4.50;;;;;;;-1.22;100.00;101122.47;10544383;28;20227;-67
2021/12/21 03:02:35;;;;;;;8.03;3.23;;;;;;;-1.14;100.00;101127.94;10543992;28;20232;-68
2021/12/21 03:18:17;;;;;;;7.83;3.20;;;;;;;-1.26;100.00;101141.81;10543374;28;20215;-67
2021/12/21 03:23:22;;;;;;;7.33;3.23;;;;;;;-1.22;100.00;101148.81;10543197;28;20227;-72
2021/12/21 03:28:26;;;;;;;7.17;3.20;;;;;;;-1.16;100.00;101158.44;10542949;28;20211;-67
2021/12/21 03:33:29;;;;;;;8.70;3.50;;;;;;;-1.27;100.00;101152.81;10543301;28;20544;-69
2021/12/21 03:38:34;;;;;;;6.73;2.30;;;;;;;-1.23;100.00;101157.25;10542789;28;20229;-67
2021/12/21 03:43:38;;;;;;;7.60;3.03;;;;;;;-1.35;100.00;101161.72;10542616;28;20223;-70
2021/12/21 03:48:45;;;;;;;7.63;3.20;;;;;;;-1.40;100.00;101163.16;10542224;28;20225;-66
2021/12/21 03:53:50;;;;;;;7.93;3.30;;;;;;;-1.45;100.00;101182.41;10542589;28;20216;-66
2021/12/21 03:58:53;;;;;;;5.83;2.40;;;;;;;-1.58;100.00;101197.88;10542361;28;20215;-65
2021/12/21 04:03:57;;;;;;;8.20;2.00;;;;;;;-1.57;100.00;101208.94;10542161;28;20245;-67
2021/12/21 04:09:02;;;;;;;7.17;2.10;;;;;;;-1.55;100.00;101217.50;10541851;28;20315;-67
2021/12/21 04:14:06;;;;;;;5.77;1.90;;;;;;;-1.76;100.00;101235.06;10542060;28;20223;-67
2021/12/21 04:19:11;;;;;;;5.07;2.17;;;;;;;-1.88;100.00;101239.50;10541788;28;20211;-66
2021/12/21 04:24:16;;;;;;;6.67;2.30;;;;;;;-2.17;100.00;101238.75;10541443;28;20215;-70
2021/12/21 04:29:19;;;;;;;5.00;2.03;;;;;;;-2.28;100.00;101242.38;10541552;28;20259;-66
2021/12/21 04:34:22;;;;;;;8.37;2.93;;;;;;;-2.37;100.00;101256.34;10541804;28;20219;-68
2021/12/21 04:39:34;;;;;;;5.37;2.00;;;;;;;-2.33;100.00;101256.50;10541409;28;20237;-69
2021/12/21 04:44:37;;;;;;;5.37;1.47;;;;;;;-2.35;98.51;101272.50;10541300;28;20250;-69
2021/12/21 04:49:41;;;;;;;4.50;1.60;;;;;;;-2.58;95.60;101288.16;10541147;28;20221;-64
2021/12/21 04:54:45;;;;;;;5.17;1.83;;;;;;;-2.75;92.93;101291.41;10541442;28;20294;-70
2021/12/21 04:59:48;;;;;;;6.20;2.20;;;;;;;-2.68;93.40;101290.09;10544969;28;20215;-68
2021/12/21 05:04:51;;;;;;;5.10;1.80;;;;;;;-2.84;92.21;101313.72;10548605;28;20219;-70
2021/12/21 05:09:58;;;;;;;5.90;1.70;;;;;;;-2.80;92.55;101320.75;10548220;28;20226;-67
2021/12/21 05:15:01;;;;;;;8.13;2.17;;;;;;;-2.96;91.17;101327.34;10548496;28;20532;-68
2021/12/21 05:20:05;;;;;;;6.63;2.50;;;;;;;-2.93;91.77;101328.41;10548162;28;20219;-68
2021/12/21 05:25:10;;;;;;;6.40;2.00;;;;;;;-3.19;91.34;101336.16;10548086;28;20223;-69
2021/12/21 05:30:15;;;;;;;6.23;1.63;;;;;;;-3.27;91.25;101329.75;10547737;28;20211;-69
2021/12/21 05:35:18;;;;;;;8.37;2.77;;;;;;;-3.34;92.74;101337.78;10547749;28;20215;-66
2021/12/21 05:40:30;;;;;;;7.67;1.67;;;;;;;-3.60;92.42;101341.28;10547261;28;20208;-66
2021/12/21 05:45:33;;;;;;;6.07;1.80;;;;;;;-3.63;93.61;101343.63;10546946;28;20303;-68
2021/12/21 05:50:37;;;;;;;5.50;1.60;;;;;;;-3.83;91.39;101353.31;10547410;28;20226;-68
2021/12/21 05:55:42;;;;;;;7.00;1.67;;;;;;;-3.92;91.69;101358.66;10546557;28;20233;-69
2021/12/21 06:00:45;;;;;;;6.87;1.60;;;;;;;-3.96;92.25;101360.91;10548926;27;20256;-68
2021/12/21 06:05:48;;;;;;;4.10;1.40;;;;;;;-4.08;90.14;101368.63;10534994;28;20223;-68
2021/12/21 06:10:55;;;;;;;14.90;5.57;;;;;;;-4.15;90.15;101389.28;10545728;28;20216;-67
2021/12/21 06:16:24;;;;;;;5.67;1.90;;;;;;;-4.17;92.61;101392.47;10545607;28;20297;-67
2021/12/21 06:26:50;;;;;;;7.90;2.67;;;;;;;-4.33;93.16;101408.34;10541736;28;20301;-67
2021/12/21 06:31:54;;;;;;;5.87;2.20;;;;;;;-4.28;94.78;101411.19;10536224;28;20299;-67
2021/12/21 06:36:57;;;;;;;9.83;2.20;;;;;;;-4.29;95.06;101404.34;10541614;28;20219;-70
2021/12/21 06:42:02;;;;;;;6.80;2.03;;;;;;;-4.38;95.27;101403.78;10541312;28;20704;-66
2021/12/21 06:51:09;;;;;;;6.23;2.20;;;;;;;-4.52;95.66;101409.59;10541303;28;20233;-68
2021/12/21 06:52:32;;;;;;;5.77;2.20;;;;;;;-4.69;95.34;101412.66;10541064;28;20233;-68
2021/12/21 06:57:42;;;;;;;10.07;2.10;;;;;;;-4.62;97.97;101424.97;10540972;28;20230;-67
2021/12/21 07:02:46;;;;;;;10.73;2.13;;;;;;;-4.63;98.56;101420.66;10539989;28;20230;-66
2021/12/21 07:07:52;;;;;;;6.47;2.00;;;;;;;-4.61;99.41;101426.69;10540479;28;20223;-69
2021/12/21 07:18:29;;;;;;;8.70;2.20;;;;;;;-4.60;100.00;101436.03;10539951;28;20682;-73
2021/12/21 07:23:33;;;;;;;9.47;2.37;;;;;;;-4.68;98.63;101439.72;10539380;28;20219;-67
2021/12/21 07:28:37;;;;;;;6.70;2.10;;;;;;;-4.53;100.00;101430.63;10540708;28;20652;-69
2021/12/21 07:33:41;;;;;;;6.13;1.80;;;;;;;-4.48;100.00;101442.81;10539461;28;20339;-67
2021/12/21 07:38:44;;;;;;;7.00;2.10;;;;;;;-4.46;99.40;101440.38;10539347;28;20225;-68
2021/12/21 07:43:48;;;;;;;9.50;2.40;;;;;;;-4.52;99.94;101439.97;10539056;28;20212;-66
2021/12/21 07:48:52;;;;;;;8.90;2.33;;;;;;;-4.39;100.00;101451.03;10539304;28;20736;-68
2021/12/21 07:53:58;;;;;;;10.83;2.60;;;;;;;-4.38;100.00;101445.16;10538599;28;20486;-66
2021/12/21 07:59:05;;;;;;;5.83;2.33;;;;;;;-4.25;100.00;101441.78;10538745;28;20766;-70
2021/12/21 08:04:10;;;;;;;7.10;2.40;;;;;;;-4.12;100.00;101455.38;10538542;28;20231;-68
2021/12/21 08:09:14;;;;;;;10.37;2.90;;;;;;;-4.18;97.11;101454.09;10539737;28;20529;-71
2021/12/21 08:14:18;;;;;;;8.10;2.00;;;;;;;-4.11;97.82;101451.19;10541824;28;20215;-71
2021/12/21 08:19:21;;;;;;;7.57;2.67;;;;;;;-4.06;93.54;101453.25;10541364;28;20219;-67
2021/12/21 08:24:25;;;;;;;7.30;2.70;;;;;;;-4.00;91.72;101460.34;10540024;28;20302;-70
2021/12/21 08:29:30;;;;;;;7.33;3.10;;;;;;;-3.93;91.67;101452.34;10538830;28;20310;-69
2021/12/21 08:34:33;;;;;;;8.50;3.67;;;;;;;-4.14;87.67;101443.38;10541913;28;20208;-66
2021/12/21 08:39:39;;;;;;;10.70;2.67;;;;;;;-4.18;84.89;101438.88;10540495;28;20291;-68
2021/12/21 08:44:47;;;;;;;5.73;2.20;;;;;;;-3.97;85.35;101430.16;10546043;28;20290;-67
2021/12/21 08:49:51;;;;;;;8.57;2.80;;;;;;;-3.55;85.24;101426.13;10532689;28;20262;-66
2021/12/21 08:54:54;;;;;;;7.73;2.13;;;;;;;-3.32;80.79;101432.63;10536488;28;20238;-67
2021/12/21 08:59:58;;;;;;;6.63;1.60;;;;;;;-3.15;76.95;101432.00;10545380;28;20211;-68
2021/12/21 09:05:07;;;;;;;5.40;1.63;;;;;;;-2.58;77.89;101425.34;10545426;28;20894;-67
2021/12/21 09:10:12;;;;;;;9.97;1.73;;;;;;;-2.22;76.34;101415.53;10545853;28;20318;-69
2021/12/21 09:15:17;;;;;;;6.10;1.87;;;;;;;-2.05;76.34;101415.72;10545278;28;20292;-67
2021/12/21 09:20:23;;;;;;;4.23;1.60;;;;;;;-1.78;74.46;101412.19;10545096;28;20207;-71
2021/12/21 09:25:28;;;;;;;10.13;1.53;;;;;;;-1.75;69.69;101404.72;10544537;28;20614;-71
2021/12/21 09:30:32;;;;;;;4.37;1.60;;;;;;;-2.02;65.17;101399.78;10544955;28;20222;-67
2021/12/21 09:35:36;;;;;;;2.90;0.93;;;;;;;-1.65;64.46;101383.19;10544149;28;20569;-69
2021/12/21 09:40:40;;;;;;;5.27;1.00;;;;;;;-1.77;61.11;101380.88;10544021;28;20306;-69
2021/12/21 09:45:44;;;;;;;6.33;1.20;;;;;;;-1.71;61.72;101383.72;10543437;28;20266;-67
2021/12/21 09:50:47;;;;;;;12.33;4.13;;;;;;;-1.99;57.53;101380.47;10544037;28;20233;-72
2021/12/21 09:55:51;;;;;;;5.40;1.30;;;;;;;-1.73;58.64;101369.19;10543394;28;20226;-65
2021/12/21 10:00:55;;;;;;;7.37;1.77;;;;;;;-1.52;57.22;101362.72;10543392;28;20216;-68
2021/12/21 10:06:05;;;;;;;3.87;1.37;;;;;;;-1.30;55.62;101366.50;10543089;28;20239;-70
2021/12/21 10:11:17;;;;;;;6.53;1.67;;;;;;;-0.74;55.45;101366.03;10543366;28;20556;-67
2021/12/21 10:16:23;;;;;;;5.47;1.93;;;;;;;-0.80;53.05;101379.31;10542654;28;20215;-67
2021/12/21 10:21:26;;;;;;;5.10;1.73;;;;;;;-0.61;52.23;101368.38;10542499;28;20302;-70
2021/12/21 10:26:30;;;;;;;11.27;2.10;;;;;;;0.32;52.03;101378.09;10542065;28;20220;-67
2021/12/21 10:31:39;;;;;;;8.07;2.00;;;;;;;0.81;51.03;101386.34;10542157;28;20298;-68
2021/12/21 10:36:43;;;;;;;7.47;2.20;;;;;;;1.06;47.52;101373.81;10541408;28;20302;-70
2021/12/21 10:41:46;;;;;;;8.23;2.00;;;;;;;0.93;43.80;101374.09;10541978;28;20215;-68
2021/12/21 10:46:53;;;;;;;7.40;2.23;;;;;;;1.52;45.29;101364.75;10541030;28;20241;-65
2021/12/21 10:52:14;;;;;;;12.77;3.00;;;;;;;2.10;45.13;101352.66;10541531;28;20207;-67
2021/12/21 10:57:20;;;;;;;11.00;3.20;;;;;;;2.22;45.40;101354.03;10540105;28;20215;-66
2021/12/21 11:02:29;;;;;;;10.53;3.13;;;;;;;2.36;45.28;101355.41;10540665;28;20258;-73
2021/12/21 11:07:40;;;;;;;11.20;3.07;;;;;;;3.03;44.24;101345.09;10540549;28;20298;-71
2021/12/21 11:12:46;;;;;;;7.60;2.40;;;;;;;2.97;42.51;101342.34;10540375;28;20312;-70
2021/12/21 11:17:50;;;;;;;11.03;1.87;;;;;;;2.83;42.71;101346.09;10540366;28;20590;-68
2021/12/21 11:22:55;;;;;;;8.87;2.30;;;;;;;2.84;42.66;101337.56;10541769;28;20268;-68
2021/12/21 11:28:03;;;;;;;6.83;2.13;;;;;;;3.34;44.13;101335.97;10539724;28;20223;-72
2021/12/21 11:33:10;;;;;;;6.03;2.20;;;;;;;3.46;44.51;101351.78;10540091;28;20219;-70
2021/12/21 11:38:14;;;;;;;6.80;2.23;;;;;;;3.60;44.93;101354.81;10542298;28;20240;-66
2021/12/21 11:43:28;;;;;;;8.70;2.87;;;;;;;3.16;46.08;101339.56;10542528;28;20318;-66
2021/12/21 11:48:45;;;;;;;9.60;2.93;;;;;;;3.49;46.35;101343.31;10542171;28;20310;-65
2021/12/21 11:53:48;;;;;;;7.37;2.80;;;;;;;3.26;47.38;101341.66;10542373;28;20294;-66
2021/12/21 11:58:55;;;;;;;9.07;2.90;;;;;;;3.43;46.93;101340.56;10542183;28;20230;-70
2021/12/21 12:04:03;;;;;;;8.00;2.97;;;;;;;3.44;47.16;101332.03;10541627;28;20611;-69
2021/12/21 12:09:07;;;;;;;9.17;3.20;;;;;;;3.26;48.59;101327.13;10508279;28;20298;-71
2021/12/21 12:14:14;;;;;;;9.07;3.47;;;;;;;2.90;49.67;101358.31;10513918;28;20622;-67
2021/12/21 12:19:21;;;;;;;9.20;3.67;;;;;;;2.16;52.21;101348.66;10555793;28;20299;-65
2021/12/21 12:24:26;;;;;;;8.87;3.23;;;;;;;2.11;53.23;101350.16;10555253;28;20230;-65
2021/12/21 12:29:29;;;;;;;9.70;3.93;;;;;;;1.86;56.02;101350.00;10555298;28;20233;-67
2021/12/21 12:34:37;;;;;;;10.07;4.70;;;;;;;1.68;58.25;101356.91;10555295;28;20221;-67
2021/12/21 12:39:42;;;;;;;15.83;5.33;;;;;;;1.30;61.79;101341.66;10539196;28;20855;-67
2021/12/21 12:44:49;;;;;;;13.07;5.27;;;;;;;1.08;63.24;101339.00;10592907;27;20675;-67
2021/12/21 12:49:56;;;;;;;12.87;4.87;;;;;;;0.62;65.41;101337.78;10552036;28;20310;-67
2021/12/21 12:55:05;;;;;;;11.73;5.50;;;;;;;0.07;69.87;101342.00;10552072;28;20220;-67
2021/12/21 13:00:14;;;;;;;9.80;5.07;;;;;;;0.16;69.24;101344.09;10551799;28;20223;-70
2021/12/21 13:05:19;;;;;;;21.10;10.17;;;;;;;-0.25;70.70;101342.16;10551434;28;20247;-71
2021/12/21 13:10:24;;;;;;;14.37;6.00;;;;;;;-0.52;72.19;101341.66;10551536;28;20222;-72
2021/12/21 13:15:38;;;;;;;11.40;4.67;;;;;;;-0.58;72.41;101333.72;10545806;28;20248;-69
2021/12/21 13:20:48;;;;;;;11.50;5.20;;;;;;;-0.84;76.15;101339.19;10545874;28;20306;-65
2021/12/21 13:25:59;;;;;;;13.00;5.17;;;;;;;-0.86;80.70;101345.00;10544905;28;20237;-67
2021/12/21 13:31:06;;;;;;;11.33;5.27;;;;;;;-0.92;82.25;101337.94;10544508;28;20223;-66
2021/12/21 13:36:11;;;;;;;11.47;5.20;;;;;;;-0.82;82.37;101357.97;10544361;28;20223;-68
2021/12/21 13:41:17;;;;;;;12.53;5.07;;;;;;;-1.07;85.24;101352.41;10543742;28;20219;-67
2021/12/21 13:46:21;;;;;;;14.03;4.90;;;;;;;-0.94;84.93;101349.72;10543719;28;20229;-69
2021/12/21 13:51:26;;;;;;;10.43;5.50;;;;;;;-0.90;85.61;101350.75;10543367;28;20466;-70
2021/12/21 13:56:31;;;;;;;16.27;5.27;;;;;;;-1.27;86.12;101347.94;10542977;28;20233;-66
2021/12/21 14:01:36;;;;;;;11.10;4.53;;;;;;;-1.31;88.35;101343.47;10543195;28;20211;-67
2021/12/21 14:06:42;;;;;;;10.33;4.90;;;;;;;-1.28;90.02;101343.66;10564957;28;20310;-69
2021/12/21 14:11:45;;;;;;;11.70;5.47;;;;;;;-1.36;92.14;101345.81;10542262;28;20211;-71
2021/12/21 14:16:52;;;;;;;12.43;6.07;;;;;;;-1.33;93.05;101337.47;10541721;28;20273;-66
2021/12/21 14:21:56;;;;;;;14.00;6.10;;;;;;;-1.08;94.03;101332.84;10543850;28;20211;-66
2021/12/21 14:27:03;;;;;;;15.23;6.97;;;;;;;-1.28;96.89;101333.47;10544194;28;20276;-67
2021/12/21 14:32:17;;;;;;;14.73;6.13;;;;;;;-1.32;99.83;101335.00;10543515;28;20291;-65
2021/12/21 14:37:24;;;;;;;14.67;5.93;;;;;;;-1.22;100.00;101338.88;10543524;28;20306;-67
2021/12/21 14:42:30;;;;;;;16.83;7.80;;;;;;;-1.17;100.00;101334.06;10544028;28;20215;-66
2021/12/21 14:47:35;;;;;;;17.43;7.00;;;;;;;-1.32;100.00;101336.66;10543642;28;20223;-67
2021/12/21 14:52:45;;;;;;;54.67;22.73;;;;;;;-1.38;100.00;101341.44;10543993;28;20613;-68
2021/12/21 14:57:51;;;;;;;18.83;7.80;;;;;;;-1.14;100.00;101324.91;10543818;28;20726;-68
2021/12/21 15:02:57;;;;;;;22.23;8.77;;;;;;;-1.21;100.00;101323.69;10540715;28;20679;-69
2021/12/21 15:08:04;;;;;;;21.27;8.13;;;;;;;-1.32;100.00;101337.53;10188647;27;10000613;-67
2021/12/21 15:13:08;;;;;;;18.00;8.50;;;;;;;-1.46;100.00;101333.38;10539322;28;20225;-65
2021/12/21 15:18:12;;;;;;;18.20;8.23;;;;;;;-1.36;100.00;101330.53;10539592;28;20241;-65
2021/12/21 15:23:16;;;;;;;20.37;8.67;;;;;;;-1.38;100.00;101323.63;10539553;28;20781;-67
2021/12/21 15:28:20;;;;;;;20.00;8.67;;;;;;;-1.49;100.00;101325.59;10539158;28;20264;-65
2021/12/21 15:33:23;;;;;;;56.73;22.07;;;;;;;-1.46;100.00;101325.75;10539409;28;20215;-72
2021/12/21 15:38:32;;;;;;;61.83;24.70;;;;;;;-1.22;100.00;101327.03;10539129;28;20211;-69
2021/12/21 15:43:38;;;;;;;20.80;8.43;;;;;;;-1.39;100.00;101324.41;10538512;28;20238;-69
2021/12/21 15:48:44;;;;;;;18.47;7.67;;;;;;;-1.15;100.00;101323.13;10538708;28;20676;-64
2021/12/21 15:53:51;;;;;;;19.50;8.53;;;;;;;-1.15;100.00;101335.84;10538336;28;20241;-66
2021/12/21 15:58:54;;;;;;;19.13;8.97;;;;;;;-1.17;100.00;101328.97;10537941;28;20635;-66
2021/12/21 16:03:59;;;;;;;18.67;8.50;;;;;;;-1.14;100.00;101324.91;10538005;28;20241;-66
2021/12/21 16:09:04;;;;;;;16.03;7.47;;;;;;;-1.09;100.00;101320.91;10545827;28;20669;-68
2021/12/21 16:14:08;;;;;;;21.30;8.27;;;;;;;-1.22;100.00;101328.69;10538047;28;20242;-63
2021/12/21 16:19:12;;;;;;;19.40;9.40;;;;;;;-1.38;100.00;101334.66;10538035;28;20225;-67
2021/12/21 16:24:16;;;;;;;28.60;11.77;;;;;;;-1.35;100.00;101324.63;10537856;28;20215;-69
2021/12/21 16:29:20;;;;;;;16.60;8.60;;;;;;;-1.28;100.00;101330.94;10537543;28;20556;-67
2021/12/21 16:34:24;;;;;;;20.43;9.33;;;;;;;-1.35;100.00;101329.72;10538077;28;20716;-63
2021/12/21 16:39:28;;;;;;;16.80;8.10;;;;;;;-1.42;100.00;101327.69;10537484;28;20199;-65
2021/12/21 16:44:32;;;;;;;18.30;8.60;;;;;;;-1.54;100.00;101339.75;10537265;28;20176;-66
2021/12/21 16:49:35;;;;;;;18.57;8.50;;;;;;;-1.32;100.00;101339.19;10536404;28;20564;-67
2021/12/21 16:54:39;;;;;;;16.57;8.37;;;;;;;-1.37;100.00;101333.00;10539240;28;20650;-66
2021/12/21 16:59:45;;;;;;;25.33;9.50;;;;;;;-1.57;100.00;101331.94;10544500;28;20931;-66
2021/12/21 17:04:54;;;;;;;17.83;9.03;;;;;;;-1.61;100.00;101336.78;10544043;28;20238;-66
2021/12/21 17:10:04;;;;;;;20.53;9.03;;;;;;;-1.59;100.00;101327.56;10543521;28;20223;-68
2021/12/21 17:15:09;;;;;;;20.20;9.07;;;;;;;-1.43;100.00;101333.53;10544612;28;20191;-67
2021/12/21 17:20:15;;;;;;;23.70;9.60;;;;;;;-1.54;100.00;101329.56;10544077;28;20186;-70
2021/12/21 17:25:19;;;;;;;19.13;8.97;;;;;;;-1.66;100.00;101330.56;10543984;28;20252;-66
2021/12/21 17:30:23;;;;;;;21.23;8.50;;;;;;;-1.54;100.00;101331.22;10544345;28;20617;-68
2021/12/21 17:35:26;;;;;;;23.70;9.97;;;;;;;-1.50;100.00;101328.06;10543249;28;20199;-66
2021/12/21 17:40:31;;;;;;;20.37;8.97;;;;;;;-1.44;100.00;101338.56;10542379;28;20202;-67
2021/12/21 17:45:35;;;;;;;19.07;8.73;;;;;;;-1.46;100.00;101335.94;10543298;28;20543;-67
2021/12/21 17:50:38;;;;;;;19.60;9.13;;;;;;;-1.56;100.00;101327.72;10543525;28;20237;-69
2021/12/21 17:55:43;;;;;;;19.97;9.10;;;;;;;-1.52;100.00;101330.50;10543923;28;20191;-69
2021/12/21 18:00:47;;;;;;;17.83;8.67;;;;;;;-1.43;100.00;101327.56;10543114;28;20187;-67
2021/12/21 18:05:50;;;;;;;22.57;9.60;;;;;;;-1.49;100.00;101324.72;10542820;28;20255;-64
2021/12/21 18:10:55;;;;;;;21.43;9.30;;;;;;;-1.50;100.00;101331.47;10577871;28;20218;-66
2021/12/21 18:15:59;;;;;;;20.73;8.97;;;;;;;-1.55;100.00;101350.69;10575746;28;20195;-70
2021/12/21 18:21:02;;;;;;;22.37;9.43;;;;;;;-1.51;100.00;101347.53;10545706;28;20639;-68
2021/12/21 18:26:07;;;;;;;20.80;8.87;;;;;;;-1.52;100.00;101334.75;10545365;28;20194;-67
2021/12/21 18:31:12;;;;;;;19.73;8.87;;;;;;;-1.56;100.00;101341.34;10545990;28;20234;-70
2021/12/21 18:36:15;;;;;;;22.30;9.43;;;;;;;-1.62;100.00;101345.19;10545085;28;20230;-66
2021/12/21 18:41:20;;;;;;;19.67;8.33;;;;;;;-1.53;100.00;101336.41;10544942;28;20306;-65
2021/12/21 18:46:23;;;;;;;18.13;8.13;;;;;;;-1.56;100.00;101337.91;10543262;28;20234;-67
2021/12/21 18:51:26;;;;;;;19.63;7.93;;;;;;;-1.51;100.00;101342.44;10541316;28;20223;-64
2021/12/21 18:56:31;;;;;;;19.87;8.27;;;;;;;-1.51;100.00;101344.09;10541453;28;20588;-65
2021/12/21 19:01:38;;;;;;;19.77;8.97;;;;;;;-1.53;100.00;101353.31;10540754;28;20608;-64
2021/12/21 19:06:42;;;;;;;30.07;8.20;;;;;;;-1.43;100.00;101346.25;10540539;28;20678;-67
2021/12/21 19:11:47;;;;;;;19.33;8.00;;;;;;;-1.46;100.00;101351.19;10498918;28;20369;-65
2021/12/21 19:16:51;;;;;;;21.23;8.57;;;;;;;-1.61;100.00;101357.13;10497832;28;20216;-63
2021/12/21 19:21:55;;;;;;;23.00;10.77;;;;;;;-1.55;100.00;101370.19;10498351;28;20220;-67
2021/12/21 19:26:59;;;;;;;23.43;9.87;;;;;;;-1.49;100.00;101355.25;10497836;28;20211;-68
2021/12/21 19:32:03;;;;;;;30.47;14.87;;;;;;;-1.53;100.00;101358.41;10497698;28;20224;-63
2021/12/21 19:37:08;;;;;;;14.17;7.07;;;;;;;-1.46;100.00;101363.03;10497765;28;20216;-66
2021/12/21 19:42:13;;;;;;;21.33;8.10;;;;;;;-1.54;100.00;101355.03;10497677;28;20224;-67
2021/12/21 19:47:16;;;;;;;18.20;7.30;;;;;;;-1.48;100.00;101362.09;10497378;28;20216;-67
2021/12/21 19:52:20;;;;;;;20.80;7.83;;;;;;;-1.33;100.00;101356.13;10496601;28;20685;-66
2021/12/21 19:57:26;;;;;;;14.67;7.03;;;;;;;-1.31;100.00;101364.72;10497257;28;20692;-69
2021/12/21 20:02:30;;;;;;;20.37;8.23;;;;;;;-1.20;100.00;101366.19;10497406;28;20260;-65
2021/12/21 20:07:34;;;;;;;19.53;7.97;;;;;;;-1.33;100.00;101368.88;10510447;28;20214;-65
2021/12/21 20:12:38;;;;;;;20.23;7.67;;;;;;;-1.33;100.00;101371.41;10580805;28;20222;-63
2021/12/21 20:17:42;;;;;;;15.97;6.87;;;;;;;-1.21;100.00;101376.31;10580840;28;20586;-70
2021/12/21 20:22:55;;;;;;;17.37;7.47;;;;;;;-1.09;100.00;101378.59;10580699;28;20660;-65
2021/12/21 20:28:02;;;;;;;15.97;6.87;;;;;;;-1.05;100.00;101390.72;10582188;28;20230;-59
2021/12/21 20:33:05;;;;;;;17.47;7.13;;;;;;;-1.07;100.00;101377.88;10589922;28;20222;-64
2021/12/21 20:38:09;;;;;;;18.10;8.13;;;;;;;-1.04;100.00;101382.25;10589482;28;20229;-68
2021/12/21 20:43:17;;;;;;;16.37;7.83;;;;;;;-1.01;100.00;101388.41;10588933;28;20218;-67
2021/12/21 20:48:22;;;;;;;15.03;7.50;;;;;;;-1.03;100.00;101389.97;10588919;28;20651;-65
2021/12/21 20:53:25;;;;;;;15.90;7.90;;;;;;;-1.01;100.00;101400.25;10588971;28;20231;-65
2021/12/21 20:58:30;;;;;;;16.07;8.23;;;;;;;-1.00;100.00;101405.41;10588163;28;20306;-68
2021/12/21 21:03:46;;;;;;;16.03;6.93;;;;;;;-0.98;100.00;101402.97;10588056;28;20238;-66
2021/12/21 21:08:50;;;;;;;16.87;8.10;;;;;;;-0.98;100.00;101415.72;10570093;27;20211;-68
2021/12/21 21:13:55;;;;;;;19.30;7.97;;;;;;;-1.03;100.00;101418.00;10545541;28;20683;-66
2021/12/21 21:18:58;;;;;;;20.77;8.43;;;;;;;-1.20;100.00;101429.84;10545537;28;20245;-65
2021/12/21 21:24:03;;;;;;;17.97;7.77;;;;;;;-1.12;100.00;101425.13;10544924;28;20215;-65
2021/12/21 21:29:08;;;;;;;21.33;8.27;;;;;;;-1.10;100.00;101435.44;10544728;28;20918;-65
2021/12/21 21:34:11;;;;;;;17.93;8.00;;;;;;;-1.11;100.00;101438.75;10544840;28;20683;-67
2021/12/21 21:39:16;;;;;;;20.33;7.90;;;;;;;-1.14;100.00;101439.50;10544057;28;20663;-65
2021/12/21 21:44:21;;;;;;;20.33;8.10;;;;;;;-1.10;100.00;101436.28;10544232;28;20318;-68
2021/12/21 21:49:24;;;;;;;20.43;8.03;;;;;;;-1.13;100.00;101442.88;10544011;28;20279;-68
2021/12/21 21:54:27;;;;;;;22.43;8.00;;;;;;;-1.15;100.00;101442.81;10544014;28;20215;-66
2021/12/21 21:59:35;;;;;;;16.10;6.77;;;;;;;-1.04;100.00;101441.72;10543709;28;20239;-66
2021/12/21 22:04:38;;;;;;;19.80;8.30;;;;;;;-1.09;100.00;101438.06;10543575;28;20314;-65
2021/12/21 22:09:47;;;;;;;17.27;8.40;;;;;;;-0.97;100.00;101438.72;10568423;28;20225;-68
2021/12/21 22:14:51;;;;;;;15.97;7.50;;;;;;;-1.00;100.00;101433.44;10585360;28;20215;-66
2021/12/21 22:19:55;;;;;;;16.57;7.10;;;;;;;-0.96;100.00;101435.34;10585078;28;20219;-68
2021/12/21 22:24:58;;;;;;;16.87;6.67;;;;;;;-1.03;100.00;101437.47;10584889;28;20233;-67
2021/12/21 22:30:03;;;;;;;17.43;6.97;;;;;;;-1.12;100.00;101432.78;10584636;28;20363;-68
2021/12/21 22:35:07;;;;;;;18.07;7.43;;;;;;;-1.05;100.00;101432.31;10584770;28;20601;-63
2021/12/21 22:40:11;;;;;;;15.00;6.90;;;;;;;-1.07;100.00;101439.00;10584140;28;20305;-64
2021/12/21 22:45:15;;;;;;;15.30;6.97;;;;;;;-1.00;100.00;101446.16;10584160;28;20693;-65
2021/12/21 22:50:18;;;;;;;17.97;7.17;;;;;;;-0.92;100.00;101433.84;10582346;28;20233;-68
2021/12/21 22:55:36;;;;;;;20.63;8.20;;;;;;;-0.93;100.00;101443.16;10534988;28;20293;-70
2021/12/21 23:00:45;;;;;;;21.00;7.60;;;;;;;-0.92;100.00;101450.03;10540707;28;20541;-65
2021/12/21 23:05:51;;;;;;;18.63;7.27;;;;;;;-0.87;100.00;101456.22;10540855;28;20322;-67
2021/12/21 23:10:55;;;;;;;17.80;8.17;;;;;;;-0.89;100.00;101465.47;10575616;28;20230;-67
2021/12/21 23:16:03;;;;;;;19.73;7.10;;;;;;;-0.87;100.00;101471.50;10583224;28;20698;-67
2021/12/21 23:21:06;;;;;;;17.67;8.40;;;;;;;-0.89;100.00;101473.09;10582913;28;20293;-70
2021/12/21 23:26:10;;;;;;;21.57;7.60;;;;;;;-1.03;100.00;101476.56;10582693;28;20218;-67
2021/12/21 23:31:26;;;;;;;16.77;6.87;;;;;;;-1.00;100.00;101480.97;10582334;28;20647;-63
2021/12/21 23:36:29;;;;;;;24.10;11.90;;;;;;;-1.05;100.00;101480.72;10582073;28;20305;-65